»·PEaware :: N796A KDVO-KRNO

N796A :: KDVO-KRNO

FLIGHT INFORMATION

Flight Status: Arrived
Operator: Privately registered:
United States
More flights under this callsign
Pilot: Donald L. (2830)
Aircraft: CESSNA 340
(C340)
More flights by this aircraft type
Origin: KDVO Gnoss
United States
Destination: KRNO Reno/Tahoe Intl
United States
More flights between these airports :: More routes between these airports
Route: +SAC V6 FMG
File this flight plan on PilotEdge
Remarks:
Altitude:
(Current/Filed)
13,000ft
Speed:
(Current/Filed)
180kts
Departed: 07-May-18 03:52 PM
Arrived: 07-May-18 04:46 PM
Distance/Time
Traveled:
154nm/0:54
Distance/Time
To Go:
Arrived

Flight Plot

Page will automatically refresh every two minutes.

Flight plan parsing failed; only flown route is shown


Map Options




Map Legend


Flown Route
Filed Route
Departure Airport
Arrival Airport
Navaid (VOR, NDB)
Fix

Horizontal Profiles

Position Reports

Time Latitude Longitude Heading Altitude Ground
Speed
07-May-18 15:34 38.139932 -122.556807 239 6ft 0kts
07-May-18 15:36 38.139932 -122.556807 239 6ft 0kts
07-May-18 15:36 38.139932 -122.556807 239 6ft 0kts
07-May-18 15:37 38.139932 -122.556807 239 6ft 0kts
07-May-18 15:38 38.139932 -122.556808 239 6ft 0kts
07-May-18 15:39 38.139161 -122.556402 147 6ft 0kts
07-May-18 15:40 38.139433 -122.554685 35 6ft 0kts
07-May-18 15:41 38.139436 -122.554683 35 6ft 0kts
07-May-18 15:42 38.139436 -122.554682 35 6ft 0kts
07-May-18 15:43 38.139436 -122.554682 35 6ft 0kts
07-May-18 15:44 38.139437 -122.554682 35 6ft 0kts
07-May-18 15:45 38.139437 -122.554682 35 6ft 0kts
07-May-18 15:47 38.139437 -122.554681 35 6ft 0kts
07-May-18 15:48 38.139439 -122.554680 35 6ft 0kts
07-May-18 15:49 38.139521 -122.554606 35 6ft 0kts
07-May-18 15:50 38.139521 -122.554605 35 6ft 0kts
07-May-18 15:51 38.139522 -122.554605 35 6ft 0kts
07-May-18 15:52 38.141506 -122.555543 327 6ft 58kts
07-May-18 15:53 38.166452 -122.574348 331 1507ft 112kts
07-May-18 15:54 38.194895 -122.572877 45 3057ft 132kts
07-May-18 15:55 38.205004 -122.528664 73 4726ft 130kts
07-May-18 15:56 38.212897 -122.482617 73 6249ft 135kts
07-May-18 15:57 38.220088 -122.434094 75 7687ft 143kts
07-May-18 15:58 38.227541 -122.383405 70 9047ft 148kts
07-May-18 15:59 38.238071 -122.332680 67 10353ft 149kts
07-May-18 16:00 38.249050 -122.280385 66 11467ft 153kts
07-May-18 16:01 38.262781 -122.226369 63 12584ft 166kts
07-May-18 16:02 38.281082 -122.168287 61 13150ft 204kts
07-May-18 16:03 38.304927 -122.098002 63 13103ft 227kts
07-May-18 16:04 38.325276 -122.025098 66 13162ft 219kts
07-May-18 16:05 38.345473 -121.952032 66 13170ft 219kts
07-May-18 16:06 38.365902 -121.878649 66 13171ft 219kts
07-May-18 16:07 38.383294 -121.803909 70 13174ft 220kts
07-May-18 16:08 38.400458 -121.728979 70 13177ft 220kts
07-May-18 16:09 38.417824 -121.653886 69 13182ft 220kts
07-May-18 16:10 38.435425 -121.579024 68 13187ft 219kts
07-May-18 16:11 38.461079 -121.509698 48 13192ft 214kts
07-May-18 16:12 38.496779 -121.448359 47 13189ft 215kts
07-May-18 16:13 38.532771 -121.387565 47 13194ft 214kts
07-May-18 16:14 38.568874 -121.326741 47 13202ft 214kts
07-May-18 16:15 38.604908 -121.266173 47 13203ft 214kts
07-May-18 16:16 38.641213 -121.205771 46 13199ft 214kts
07-May-18 16:17 38.678279 -121.145820 46 13186ft 215kts
07-May-18 16:18 38.715491 -121.086013 46 13172ft 215kts
07-May-18 16:19 38.752829 -121.026235 45 13162ft 215kts
07-May-18 16:20 38.790300 -120.966273 47 13159ft 215kts
07-May-18 16:21 38.825879 -120.904332 48 13146ft 215kts
07-May-18 16:22 38.861395 -120.842233 48 13148ft 215kts
07-May-18 16:23 38.896827 -120.780321 48 13142ft 215kts
07-May-18 16:24 38.932523 -120.718122 48 13141ft 216kts
07-May-18 16:25 38.968247 -120.656137 48 13128ft 216kts
07-May-18 16:26 39.004353 -120.593769 48 12947ft 222kts
07-May-18 16:27 39.040243 -120.529457 50 12860ft 219kts
07-May-18 16:28 39.074383 -120.465059 53 12857ft 218kts
07-May-18 16:29 39.107072 -120.399530 53 12841ft 217kts
07-May-18 16:30 39.140207 -120.334457 50 12839ft 216kts
07-May-18 16:31 39.175937 -120.272485 48 12837ft 215kts
07-May-18 16:32 39.212356 -120.211203 47 12834ft 215kts
07-May-18 16:33 39.248972 -120.149738 47 12834ft 215kts
07-May-18 16:34 39.285517 -120.088520 47 12836ft 215kts
07-May-18 16:35 39.322153 -120.027272 47 12849ft 214kts
07-May-18 16:36 39.357581 -119.965372 49 12855ft 214kts
07-May-18 16:37 39.392640 -119.903341 49 12852ft 214kts
07-May-18 16:38 39.427778 -119.841460 49 12796ft 212kts
07-May-18 16:39 39.466672 -119.778716 44 11010ft 237kts
07-May-18 16:40 39.515687 -119.738623 7 10336ft 178kts
07-May-18 16:41 39.568025 -119.725304 7 9096ft 202kts
07-May-18 16:42 39.596214 -119.749302 265 8931ft 119kts
07-May-18 16:43 39.573254 -119.765008 181 7596ft 112kts
07-May-18 16:44 39.541737 -119.766304 181 5522ft 111kts
07-May-18 16:45 39.515239 -119.766856 178 4491ft 75kts
07-May-18 16:46 39.506466 -119.766354 86 4419ft 4kts
07-May-18 16:47 39.504777 -119.765710 179 4419ft 11kts
07-May-18 16:48 39.503810 -119.765216 75 4419ft 0kts

Navigation Log

Ident Type
Flight plan parsing failed, navigation log unavailable